Time;durP1;ratioP1;P1;durP2;ratioP2;P2;SDS_P1;SDS_P2;PMS_P1;PMS_P2;Temp;Humidity;BMP_temperature;BMP_pressure;BME280_temperature;BME280_humidity;BME280_pressure;Samples;Min_cycle;Max_cycle;Signal;HPM_P1;HPM_P2
2023/07/12 00:00:13;;;;;;;4.53;3.05;;;;;;;-141.20;100.00;60650.00;5071210;28;20039;-72
2023/07/12 00:02:47;;;;;;;5.75;3.45;;;;;;;-141.20;100.00;60650.00;5063672;28;20037;-73
2023/07/12 00:05:13;;;;;;;5.00;3.10;;;;;;;-141.20;100.00;60650.00;5068557;28;20063;-73
2023/07/12 00:07:38;;;;;;;6.55;3.33;;;;;;;-141.20;100.00;60650.00;5062666;28;20020;-74
2023/07/12 00:10:13;;;;;;;5.95;3.90;;;;;;;-141.20;100.00;60650.00;5046002;28;20040;-73
2023/07/12 00:12:38;;;;;;;4.87;3.73;;;;;;;-141.20;100.00;60650.00;5058779;28;20120;-73
2023/07/12 00:15:04;;;;;;;5.10;3.53;;;;;;;-141.20;100.00;60650.00;5066715;28;20798;-73
2023/07/12 00:17:29;;;;;;;5.43;3.88;;;;;;;-141.20;100.00;60650.00;5052739;28;20040;-73
2023/07/12 00:19:55;;;;;;;7.28;4.03;;;;;;;-141.20;100.00;60650.00;5052620;28;20229;-73
2023/07/12 00:22:20;;;;;;;5.90;4.63;;;;;;;-141.20;100.00;60650.00;5067391;28;20158;-74
2023/07/12 00:24:45;;;;;;;6.30;4.40;;;;;;;-141.20;100.00;60650.00;5065575;28;20033;-73
2023/07/12 00:27:11;;;;;;;5.88;4.25;;;;;;;-141.20;100.00;60650.00;5058599;28;20090;-74
2023/07/12 00:29:36;;;;;;;7.38;4.50;;;;;;;-141.20;100.00;60650.00;5069289;28;20037;-73
2023/07/12 00:32:03;;;;;;;6.15;4.25;;;;;;;-141.20;100.00;60650.00;5066109;28;20029;-72
2023/07/12 00:34:30;;;;;;;6.07;4.40;;;;;;;-141.20;100.00;60650.00;5047303;28;20025;-73
2023/07/12 00:36:55;;;;;;;5.60;4.30;;;;;;;-141.20;100.00;60650.00;5047737;28;20032;-73
2023/07/12 00:39:20;;;;;;;5.78;4.57;;;;;;;-141.20;100.00;60650.00;5044655;28;20573;-73
2023/07/12 00:42:19;;;;;;;6.53;3.92;;;;;;;-141.20;100.00;60650.00;5063282;28;20043;-73
2023/07/12 00:44:48;;;;;;;6.50;4.47;;;;;;;-141.20;100.00;60650.00;5067600;28;20383;-73
2023/07/12 00:47:14;;;;;;;6.70;4.50;;;;;;;-141.20;100.00;60650.00;5047211;28;20036;-73
2023/07/12 00:49:40;;;;;;;5.47;4.20;;;;;;;-141.20;100.00;60650.00;5056792;28;20036;-73
2023/07/12 00:52:13;;;;;;;5.50;4.30;;;;;;;-141.20;100.00;60650.00;5046006;28;20036;-73
2023/07/12 00:55:27;;;;;;;6.55;4.07;;;;;;;-141.20;100.00;60650.00;5068676;28;20068;-73
2023/07/12 00:57:52;;;;;;;5.88;3.90;;;;;;;-141.20;100.00;60650.00;5044534;28;20064;-75
2023/07/12 01:00:18;;;;;;;7.53;4.18;;;;;;;-141.20;100.00;60650.00;5052962;28;20078;-74
2023/07/12 01:02:44;;;;;;;7.13;3.88;;;;;;;-141.20;100.00;60650.00;5062131;28;20056;-72
2023/07/12 01:05:10;;;;;;;6.65;3.90;;;;;;;-141.20;100.00;60650.00;5050140;28;20525;-72
2023/07/12 01:07:36;;;;;;;6.55;4.10;;;;;;;-141.20;100.00;60650.00;5052729;28;20056;-72
2023/07/12 01:10:01;;;;;;;7.65;4.45;;;;;;;-141.20;100.00;60650.00;5053432;28;20113;-73
2023/07/12 01:12:27;;;;;;;5.82;4.20;;;;;;;-141.20;100.00;60650.00;5038122;28;20029;-74
2023/07/12 01:14:53;;;;;;;8.48;3.88;;;;;;;-141.20;100.00;60650.00;5044654;28;20082;-73
2023/07/12 01:17:19;;;;;;;4.70;3.90;;;;;;;-141.20;100.00;60650.00;5064448;28;20461;-74
2023/07/12 01:19:46;;;;;;;5.20;3.63;;;;;;;-141.20;100.00;60650.00;5049755;28;20025;-73
2023/07/12 01:22:12;;;;;;;7.82;3.45;;;;;;;-141.20;100.00;60650.00;5053166;28;20169;-73
2023/07/12 01:24:37;;;;;;;6.72;3.58;;;;;;;-141.20;100.00;60650.00;5053190;28;20020;-72
2023/07/12 01:27:13;;;;;;;6.78;3.60;;;;;;;-141.20;100.00;60650.00;5056579;28;20044;-72
2023/07/12 01:29:39;;;;;;;4.53;3.72;;;;;;;-141.20;100.00;60650.00;5029644;28;20509;-72
2023/07/12 01:32:05;;;;;;;5.65;3.65;;;;;;;-141.20;100.00;60650.00;5032462;28;20107;-72
2023/07/12 01:34:30;;;;;;;4.63;3.63;;;;;;;-141.20;100.00;60650.00;5069718;28;20170;-73
2023/07/12 01:36:57;;;;;;;5.15;4.00;;;;;;;-141.20;100.00;60650.00;5066197;28;20060;-74
2023/07/12 01:39:22;;;;;;;4.50;3.75;;;;;;;-141.20;100.00;60650.00;5029716;28;20483;-72
2023/07/12 01:41:48;;;;;;;6.38;4.35;;;;;;;-141.20;100.00;60650.00;5060248;28;20020;-72
2023/07/12 01:44:13;;;;;;;6.03;4.28;;;;;;;-141.20;100.00;60650.00;5070209;28;20055;-73
2023/07/12 01:46:39;;;;;;;5.88;4.72;;;;;;;-141.20;100.00;60650.00;5057782;28;20024;-72
2023/07/12 01:49:04;;;;;;;7.82;4.80;;;;;;;-141.20;100.00;60650.00;5036199;28;20473;-73
2023/07/12 01:51:30;;;;;;;5.50;4.45;;;;;;;-141.20;100.00;60650.00;5035420;28;20035;-73
2023/07/12 01:53:56;;;;;;;4.50;4.03;;;;;;;-141.20;100.00;60650.00;5049419;28;20037;-73
2023/07/12 01:56:21;;;;;;;8.32;4.50;;;;;;;-141.20;100.00;60650.00;5048913;28;20020;-73
2023/07/12 01:58:47;;;;;;;7.10;4.88;;;;;;;-141.20;100.00;60650.00;5047413;28;20120;-73
2023/07/12 02:01:13;;;;;;;6.35;4.55;;;;;;;-141.20;100.00;60650.00;5067295;28;20028;-73
2023/07/12 02:03:39;;;;;;;6.43;4.55;;;;;;;-141.20;100.00;60650.00;5052776;28;20033;-73
2023/07/12 02:06:04;;;;;;;5.60;4.70;;;;;;;-141.20;100.00;60650.00;5049882;28;20511;-72
2023/07/12 02:08:29;;;;;;;8.85;4.88;;;;;;;-141.20;100.00;60650.00;5067086;28;20028;-72
2023/07/12 02:10:55;;;;;;;6.47;5.07;;;;;;;-141.20;100.00;60650.00;5045247;28;20025;-71
2023/07/12 02:13:22;;;;;;;6.80;5.10;;;;;;;-141.20;100.00;60650.00;5048588;28;20070;-73
2023/07/12 02:15:47;;;;;;;7.47;4.85;;;;;;;-141.20;100.00;60650.00;5052306;28;20486;-72
2023/07/12 02:18:13;;;;;;;6.70;5.03;;;;;;;-141.20;100.00;60650.00;5049622;28;20040;-72
2023/07/12 02:20:39;;;;;;;6.80;4.50;;;;;;;-141.20;100.00;60650.00;5059825;28;20178;-72
2023/07/12 02:23:05;;;;;;;8.15;5.38;;;;;;;-141.20;100.00;60650.00;5049759;28;20047;-73
2023/07/12 02:25:30;;;;;;;5.50;4.90;;;;;;;-141.20;100.00;60650.00;5063750;28;20036;-73
2023/07/12 02:27:55;;;;;;;6.45;4.65;;;;;;;-141.20;100.00;60650.00;5049024;28;20037;-72
2023/07/12 02:30:26;;;;;;;6.97;4.82;;;;;;;-141.20;100.00;60650.00;5062455;28;20025;-73
2023/07/12 02:32:52;;;;;;;6.78;5.18;;;;;;;-141.20;100.00;60650.00;5066230;28;20040;-72
2023/07/12 02:35:19;;;;;;;8.40;5.18;;;;;;;-141.20;100.00;60650.00;5045265;28;20536;-71
2023/07/12 02:37:45;;;;;;;6.93;5.03;;;;;;;-141.20;100.00;60650.00;5066573;28;20082;-73
2023/07/12 02:40:12;;;;;;;7.00;4.97;;;;;;;-141.20;100.00;60650.00;5061763;28;20123;-73
2023/07/12 02:42:37;;;;;;;5.93;4.47;;;;;;;-141.20;100.00;60650.00;5064670;28;20040;-73
2023/07/12 02:45:04;;;;;;;6.75;4.70;;;;;;;-141.20;100.00;60650.00;5073872;28;20024;-73
2023/07/12 02:47:29;;;;;;;6.82;4.80;;;;;;;-141.20;100.00;60650.00;5066763;28;20039;-74
2023/07/12 02:49:55;;;;;;;8.15;4.13;;;;;;;-141.20;100.00;60650.00;5048797;28;20363;-74
2023/07/12 02:52:20;;;;;;;9.10;4.93;;;;;;;-141.20;100.00;60650.00;5067442;28;20036;-73
2023/07/12 02:54:46;;;;;;;6.75;4.32;;;;;;;-141.20;100.00;60650.00;5059559;28;20649;-72
2023/07/12 02:57:14;;;;;;;5.68;4.45;;;;;;;-141.20;100.00;60650.00;5046896;28;20493;-73
2023/07/12 02:59:40;;;;;;;5.30;4.13;;;;;;;-141.20;100.00;60650.00;5068619;28;20013;-73
2023/07/12 03:02:06;;;;;;;5.38;4.07;;;;;;;-141.20;100.00;60650.00;5064161;28;20036;-73
2023/07/12 03:04:32;;;;;;;7.88;4.43;;;;;;;-141.20;100.00;60650.00;5065404;28;20360;-74
2023/07/12 03:06:57;;;;;;;7.57;4.40;;;;;;;-141.20;100.00;60650.00;5064238;28;20033;-73
2023/07/12 03:09:22;;;;;;;7.82;4.47;;;;;;;-141.20;100.00;60650.00;5064788;28;20113;-73
2023/07/12 03:11:48;;;;;;;5.38;4.22;;;;;;;-141.20;100.00;60650.00;5072610;28;20534;-73
2023/07/12 03:14:20;;;;;;;5.78;3.90;;;;;;;-141.20;100.00;60650.00;5052490;28;20032;-73
2023/07/12 03:16:46;;;;;;;7.80;4.05;;;;;;;-141.20;100.00;60650.00;5053920;28;20043;-74
2023/07/12 03:19:12;;;;;;;7.63;4.13;;;;;;;-141.20;100.00;60650.00;5043924;28;20025;-73
2023/07/12 03:21:38;;;;;;;6.80;3.95;;;;;;;-141.20;100.00;60650.00;5065976;28;20060;-73
2023/07/12 03:24:03;;;;;;;7.50;3.97;;;;;;;-141.20;100.00;60650.00;5067798;28;20469;-73
2023/07/12 03:26:29;;;;;;;7.78;4.13;;;;;;;-141.20;100.00;60650.00;5052500;28;20032;-73
2023/07/12 03:28:55;;;;;;;6.68;3.90;;;;;;;-141.20;100.00;60650.00;5067660;28;20032;-73
2023/07/12 03:31:21;;;;;;;7.22;4.03;;;;;;;-141.20;100.00;60650.00;5065338;28;20503;-73
2023/07/12 03:33:47;;;;;;;5.03;4.28;;;;;;;-141.20;100.00;60650.00;5064580;28;20039;-73
2023/07/12 03:36:13;;;;;;;6.85;4.18;;;;;;;-141.20;100.00;60650.00;5060087;28;20036;-73
2023/07/12 03:38:39;;;;;;;9.30;4.05;;;;;;;-141.20;100.00;60650.00;5046915;28;20021;-74
2023/07/12 03:41:07;;;;;;;6.55;4.13;;;;;;;-141.20;100.00;60650.00;5062142;28;20036;-74
2023/07/12 03:43:33;;;;;;;5.10;3.97;;;;;;;-141.20;100.00;60650.00;5064818;28;20569;-73
2023/07/12 03:45:58;;;;;;;5.20;3.97;;;;;;;-141.20;100.00;60650.00;5070758;28;20123;-73
2023/07/12 03:48:24;;;;;;;6.13;3.95;;;;;;;-141.20;100.00;60650.00;5065102;28;20032;-74
2023/07/12 03:50:51;;;;;;;7.97;4.03;;;;;;;-141.20;100.00;60650.00;5038583;28;20485;-74
2023/07/12 03:53:18;;;;;;;5.10;3.80;;;;;;;-141.20;100.00;60650.00;5066628;28;20851;-74
2023/07/12 03:55:45;;;;;;;5.70;3.83;;;;;;;-141.20;100.00;60650.00;5066317;28;20582;-73
2023/07/12 03:58:12;;;;;;;5.40;3.90;;;;;;;-141.20;100.00;60650.00;5066228;28;20028;-74
2023/07/12 04:00:42;;;;;;;7.15;4.15;;;;;;;-141.20;100.00;60650.00;5067380;28;20090;-74
2023/07/12 04:03:07;;;;;;;6.97;3.90;;;;;;;-141.20;100.00;60650.00;5055307;28;20410;-72
2023/07/12 04:05:37;;;;;;;5.80;3.85;;;;;;;-141.20;100.00;60650.00;5068344;28;20020;-73
2023/07/12 04:08:02;;;;;;;5.80;3.50;;;;;;;-141.20;100.00;60650.00;5050546;28;20537;-72
2023/07/12 04:10:28;;;;;;;5.60;3.92;;;;;;;-141.20;100.00;60650.00;5065903;28;20098;-74
2023/07/12 04:12:53;;;;;;;7.38;4.10;;;;;;;-141.20;100.00;60650.00;5058237;28;20036;-73
2023/07/12 04:15:19;;;;;;;6.13;3.80;;;;;;;-141.20;100.00;60650.00;5070783;28;20421;-73
2023/07/12 04:17:44;;;;;;;5.28;3.80;;;;;;;-141.20;100.00;60650.00;5054519;28;20111;-72
2023/07/12 04:20:10;;;;;;;8.05;4.32;;;;;;;-141.20;100.00;60650.00;5070803;28;20683;-73
2023/07/12 04:22:35;;;;;;;4.95;3.70;;;;;;;-141.20;100.00;60650.00;5068946;28;20064;-75
2023/07/12 04:25:01;;;;;;;7.28;4.07;;;;;;;-141.20;100.00;60650.00;5051903;28;20111;-75
2023/07/12 04:27:26;;;;;;;5.57;3.80;;;;;;;-141.20;100.00;60650.00;5051275;28;20040;-75
2023/07/12 04:29:51;;;;;;;6.75;3.78;;;;;;;-141.20;100.00;60650.00;5035283;28;20029;-75
2023/07/12 04:32:17;;;;;;;5.38;3.45;;;;;;;-141.20;100.00;60650.00;5043828;28;20036;-75
2023/07/12 04:34:42;;;;;;;6.38;3.55;;;;;;;-141.20;100.00;60650.00;5052648;28;20037;-75
2023/07/12 04:37:08;;;;;;;5.45;3.83;;;;;;;-141.20;100.00;60650.00;5067003;28;20556;-75
2023/07/12 04:39:33;;;;;;;6.28;4.22;;;;;;;-141.20;100.00;60650.00;5053776;28;20016;-74
2023/07/12 04:41:58;;;;;;;5.80;3.65;;;;;;;-141.20;100.00;60650.00;5070532;28;20051;-74
2023/07/12 04:44:25;;;;;;;4.45;3.25;;;;;;;-141.20;100.00;60650.00;5068620;28;20086;-76
2023/07/12 04:46:50;;;;;;;4.28;3.08;;;;;;;-141.20;100.00;60650.00;5068409;28;20050;-76
2023/07/12 04:49:15;;;;;;;5.50;3.60;;;;;;;-141.20;100.00;60650.00;5064558;28;20032;-75
2023/07/12 04:51:41;;;;;;;4.82;3.10;;;;;;;-141.20;100.00;60650.00;5039668;28;20032;-77
2023/07/12 04:54:06;;;;;;;3.08;2.78;;;;;;;-141.20;100.00;60650.00;5051242;28;20142;-76
2023/07/12 04:56:31;;;;;;;4.20;3.15;;;;;;;-141.20;100.00;60650.00;5021940;28;20032;-76
2023/07/12 04:58:57;;;;;;;5.03;3.00;;;;;;;-141.20;100.00;60650.00;5061877;28;20024;-76
2023/07/12 05:01:22;;;;;;;4.43;3.35;;;;;;;-141.20;100.00;60650.00;5051482;28;20032;-76
2023/07/12 05:03:48;;;;;;;4.47;3.00;;;;;;;-141.20;100.00;60650.00;5067019;28;20050;-76
2023/07/12 05:06:13;;;;;;;5.03;3.58;;;;;;;-141.20;100.00;60650.00;5041978;28;20059;-76
2023/07/12 05:08:39;;;;;;;5.43;3.17;;;;;;;-141.20;100.00;60650.00;5035058;28;20021;-76
2023/07/12 05:11:04;;;;;;;3.50;2.70;;;;;;;-141.20;100.00;60650.00;5071498;28;20044;-74
2023/07/12 05:13:29;;;;;;;5.38;3.03;;;;;;;-141.20;100.00;60650.00;5056678;28;20106;-75
2023/07/12 05:15:55;;;;;;;3.83;2.90;;;;;;;-141.20;100.00;60650.00;5050412;28;20044;-74
2023/07/12 05:18:21;;;;;;;3.75;2.83;;;;;;;-141.20;100.00;60650.00;5063550;28;20029;-74
2023/07/12 05:20:48;;;;;;;4.80;2.63;;;;;;;-141.20;100.00;60650.00;5050343;28;20041;-73
2023/07/12 05:23:13;;;;;;;4.28;2.67;;;;;;;-141.20;100.00;60650.00;5050017;28;20032;-73
2023/07/12 05:25:39;;;;;;;5.95;2.25;;;;;;;-141.20;100.00;60650.00;5037949;28;20143;-74
2023/07/12 05:28:04;;;;;;;5.65;2.58;;;;;;;-141.20;100.00;60650.00;5064261;28;20479;-75
2023/07/12 05:30:30;;;;;;;6.93;2.85;;;;;;;-141.20;100.00;60650.00;5069774;28;20043;-72
2023/07/12 05:32:56;;;;;;;5.00;2.90;;;;;;;-141.20;100.00;60650.00;5052614;28;20020;-72
2023/07/12 05:35:21;;;;;;;4.85;2.60;;;;;;;-141.20;100.00;60650.00;5034794;28;20574;-73
2023/07/12 05:37:48;;;;;;;4.68;2.60;;;;;;;-141.20;100.00;60650.00;5068164;28;20032;-73
2023/07/12 05:40:14;;;;;;;4.68;2.90;;;;;;;-141.20;100.00;60650.00;5059457;28;20045;-73
2023/07/12 05:42:41;;;;;;;4.30;3.00;;;;;;;-141.20;100.00;60650.00;5063867;28;20024;-73
2023/07/12 05:45:08;;;;;;;3.97;2.45;;;;;;;-141.20;100.00;60650.00;5064030;28;20037;-72
2023/07/12 05:47:34;;;;;;;5.65;2.60;;;;;;;-141.20;100.00;60650.00;5046680;28;20431;-72
2023/07/12 05:49:59;;;;;;;5.13;2.65;;;;;;;-141.20;100.00;60650.00;5061539;28;20071;-72
2023/07/12 05:52:25;;;;;;;4.97;2.70;;;;;;;-141.20;100.00;60650.00;5054333;28;20033;-72
2023/07/12 05:54:50;;;;;;;3.80;2.40;;;;;;;-141.20;100.00;60650.00;5060315;28;20055;-72
2023/07/12 05:57:16;;;;;;;4.10;2.35;;;;;;;-141.20;100.00;60650.00;5054486;28;20045;-72
2023/07/12 05:59:41;;;;;;;3.38;2.38;;;;;;;-141.20;100.00;60650.00;5051082;28;20059;-71
2023/07/12 06:02:12;;;;;;;4.40;2.45;;;;;;;-141.20;100.00;60650.00;5063228;28;20048;-73
2023/07/12 06:04:37;;;;;;;3.72;2.28;;;;;;;-141.20;100.00;60650.00;5049831;28;20037;-72
2023/07/12 06:07:03;;;;;;;4.35;2.60;;;;;;;-141.20;100.00;60650.00;5049794;28;20040;-72
2023/07/12 06:09:28;;;;;;;4.70;2.88;;;;;;;-141.20;100.00;60650.00;5032970;28;20487;-72
2023/07/12 06:11:54;;;;;;;2.38;2.10;;;;;;;-141.20;100.00;60650.00;5028257;28;20086;-72
2023/07/12 06:14:19;;;;;;;3.03;2.25;;;;;;;-141.20;100.00;60650.00;5050659;28;20071;-72
2023/07/12 06:16:44;;;;;;;4.38;2.35;;;;;;;-141.20;100.00;60650.00;5065279;28;20028;-71
2023/07/12 06:19:10;;;;;;;6.30;2.80;;;;;;;-141.20;100.00;60650.00;5045326;28;20540;-71
2023/07/12 06:21:35;;;;;;;3.65;2.55;;;;;;;-141.20;100.00;60650.00;5058838;28;20032;-71
2023/07/12 06:24:01;;;;;;;4.95;2.50;;;;;;;-141.20;100.00;60650.00;5054569;28;20124;-72
2023/07/12 06:26:27;;;;;;;3.60;2.13;;;;;;;-141.20;100.00;60650.00;5066987;28;20482;-70
2023/07/12 06:28:53;;;;;;;3.33;2.17;;;;;;;-141.20;100.00;60650.00;5053598;28;20048;-72
2023/07/12 06:31:18;;;;;;;4.20;2.38;;;;;;;-141.20;100.00;60650.00;5053559;28;20021;-70
2023/07/12 06:33:43;;;;;;;4.72;2.22;;;;;;;-141.20;100.00;60650.00;5054474;28;20114;-74
2023/07/12 06:36:09;;;;;;;3.50;2.65;;;;;;;-141.20;100.00;60650.00;5053391;28;20033;-74
2023/07/12 06:38:34;;;;;;;6.50;3.00;;;;;;;-141.20;100.00;60650.00;5053248;28;20040;-72
2023/07/12 06:41:00;;;;;;;3.55;2.40;;;;;;;-141.20;100.00;60650.00;5036655;28;20090;-73
2023/07/12 06:43:25;;;;;;;4.75;2.33;;;;;;;-141.20;100.00;60650.00;5045990;28;20036;-74
2023/07/12 06:45:51;;;;;;;9.48;2.67;;;;;;;-141.20;100.00;60650.00;5059776;28;20028;-72
2023/07/12 06:48:16;;;;;;;5.20;2.70;;;;;;;-141.20;100.00;60650.00;5073445;28;20551;-74
2023/07/12 06:50:42;;;;;;;3.60;2.50;;;;;;;-141.20;100.00;60650.00;5061557;28;20027;-75
2023/07/12 06:53:07;;;;;;;5.85;2.50;;;;;;;-141.20;100.00;60650.00;5070655;28;20055;-74
2023/07/12 06:55:33;;;;;;;6.72;2.53;;;;;;;-141.20;100.00;60650.00;5076187;28;20386;-71
2023/07/12 06:57:58;;;;;;;6.18;2.83;;;;;;;-141.20;100.00;60650.00;5069764;28;20507;-72
2023/07/12 07:00:23;;;;;;;5.10;2.80;;;;;;;-141.20;100.00;60650.00;5040811;28;20043;-71
2023/07/12 07:02:49;;;;;;;4.47;2.50;;;;;;;-141.20;100.00;60650.00;5054894;28;20056;-74
2023/07/12 07:05:15;;;;;;;5.75;2.70;;;;;;;-141.20;100.00;60650.00;5074730;28;20689;-72
2023/07/12 07:07:40;;;;;;;5.85;2.70;;;;;;;-141.20;100.00;60650.00;5065979;28;20056;-73
2023/07/12 07:10:06;;;;;;;4.72;2.58;;;;;;;-141.20;100.00;60650.00;5071073;28;20034;-73
2023/07/12 07:12:31;;;;;;;4.35;2.72;;;;;;;-141.20;100.00;60650.00;5072712;28;20040;-72
2023/07/12 07:14:57;;;;;;;9.95;3.08;;;;;;;-141.20;100.00;60650.00;5056907;28;20034;-74
2023/07/12 07:17:22;;;;;;;7.60;3.70;;;;;;;-141.20;100.00;60650.00;5074571;28;20341;-73
2023/07/12 07:19:47;;;;;;;7.75;3.80;;;;;;;-141.20;100.00;60650.00;5061278;28;20107;-72
2023/07/12 07:22:13;;;;;;;8.02;3.75;;;;;;;-141.20;100.00;60650.00;5050536;28;20430;-73
2023/07/12 07:24:38;;;;;;;7.18;3.90;;;;;;;-141.20;100.00;60650.00;5050106;28;20024;-73
2023/07/12 07:27:04;;;;;;;8.45;4.07;;;;;;;-141.20;100.00;60650.00;5070972;28;20100;-73
2023/07/12 07:29:30;;;;;;;8.82;4.40;;;;;;;-141.20;100.00;60650.00;5070431;28;20027;-74
2023/07/12 07:31:55;;;;;;;7.75;4.05;;;;;;;-141.20;100.00;60650.00;5047551;28;20037;-74
2023/07/12 07:34:20;;;;;;;10.15;4.45;;;;;;;-141.20;100.00;60650.00;5063010;28;20020;-74
2023/07/12 07:36:46;;;;;;;10.43;4.20;;;;;;;-141.20;100.00;60650.00;5040822;28;20498;-75
2023/07/12 07:39:11;;;;;;;7.43;4.10;;;;;;;-141.20;100.00;60650.00;5072383;28;20531;-74
2023/07/12 07:41:37;;;;;;;8.70;4.10;;;;;;;-141.20;100.00;60650.00;5059998;28;20037;-75
2023/07/12 07:44:02;;;;;;;6.40;4.55;;;;;;;-141.20;100.00;60650.00;5058504;28;20601;-74
2023/07/12 07:46:28;;;;;;;7.43;4.82;;;;;;;-141.20;100.00;60650.00;5058131;28;20437;-74
2023/07/12 07:48:53;;;;;;;6.78;4.60;;;;;;;-141.20;100.00;60650.00;5059433;28;20108;-74
2023/07/12 07:51:19;;;;;;;9.38;4.72;;;;;;;-141.20;100.00;60650.00;5066623;28;20055;-74
2023/07/12 07:53:44;;;;;;;7.60;4.78;;;;;;;-141.20;100.00;60650.00;5035175;28;20147;-74
2023/07/12 07:56:11;;;;;;;7.88;4.47;;;;;;;-141.20;100.00;60650.00;5065334;28;20044;-75
2023/07/12 07:58:36;;;;;;;11.20;4.60;;;;;;;-141.20;100.00;60650.00;5064819;28;20017;-74
2023/07/12 08:01:02;;;;;;;6.78;4.45;;;;;;;-141.20;100.00;60650.00;5058469;28;20447;-74
2023/07/12 08:03:29;;;;;;;7.60;5.50;;;;;;;-141.20;100.00;60650.00;5059103;28;20119;-74
2023/07/12 08:06:03;;;;;;;6.63;4.55;;;;;;;-141.20;100.00;60650.00;5065104;28;20079;-74
2023/07/12 08:08:29;;;;;;;8.63;4.70;;;;;;;-141.20;100.00;60650.00;5065498;28;20048;-74
2023/07/12 08:10:55;;;;;;;8.80;5.32;;;;;;;-141.20;100.00;60650.00;5058760;28;20047;-74
2023/07/12 08:13:20;;;;;;;6.55;4.90;;;;;;;-141.20;100.00;60650.00;5057778;28;20512;-75
2023/07/12 08:15:45;;;;;;;7.32;5.50;;;;;;;-141.20;100.00;60650.00;5051670;28;20090;-74
2023/07/12 08:18:12;;;;;;;8.32;5.53;;;;;;;-141.20;100.00;60650.00;5064792;28;20037;-76
2023/07/12 08:20:39;;;;;;;11.50;6.00;;;;;;;-141.20;100.00;60650.00;5051717;28;20120;-75
2023/07/12 08:23:06;;;;;;;9.27;5.90;;;;;;;-141.20;100.00;60650.00;5066538;28;20041;-75
2023/07/12 08:25:32;;;;;;;11.00;5.85;;;;;;;-141.20;100.00;60650.00;5064572;28;20029;-75
2023/07/12 08:27:57;;;;;;;7.40;6.20;;;;;;;-141.20;100.00;60650.00;5064825;28;20520;-76
2023/07/12 08:30:22;;;;;;;10.23;6.35;;;;;;;-141.20;100.00;60650.00;5034756;28;20025;-76
2023/07/12 08:32:48;;;;;;;9.27;5.55;;;;;;;-141.20;100.00;60650.00;5044724;28;20044;-75
2023/07/12 08:35:13;;;;;;;9.43;6.20;;;;;;;-141.20;100.00;60650.00;5071286;28;20028;-76
2023/07/12 08:37:40;;;;;;;10.43;5.63;;;;;;;-141.20;100.00;60650.00;5058975;28;20045;-75
2023/07/12 08:40:06;;;;;;;11.48;6.45;;;;;;;-141.20;100.00;60650.00;5057392;28;20382;-75
2023/07/12 08:42:35;;;;;;;8.95;6.10;;;;;;;-141.20;100.00;60650.00;5073171;28;20028;-76
2023/07/12 08:45:05;;;;;;;10.98;6.50;;;;;;;-141.20;100.00;60650.00;5063893;28;20131;-75
2023/07/12 08:47:36;;;;;;;8.65;6.15;;;;;;;-141.20;100.00;60650.00;5051691;28;20597;-74
2023/07/12 08:50:01;;;;;;;9.27;6.95;;;;;;;-141.20;100.00;60650.00;5070598;28;20039;-76
2023/07/12 08:52:33;;;;;;;6.57;5.55;;;;;;;-141.20;100.00;60650.00;5066089;28;20025;-74
2023/07/12 08:55:00;;;;;;;8.65;6.25;;;;;;;-141.20;100.00;60650.00;5048692;28;20036;-74
2023/07/12 08:57:28;;;;;;;8.52;6.38;;;;;;;-141.20;100.00;60650.00;5055271;28;20029;-75
2023/07/12 09:00:10;;;;;;;8.35;6.53;;;;;;;-141.20;100.00;60650.00;5065290;28;20047;-75
2023/07/12 09:02:36;;;;;;;8.55;6.28;;;;;;;-141.20;100.00;60650.00;5052178;28;20039;-75
2023/07/12 09:05:11;;;;;;;10.43;6.13;;;;;;;-141.20;100.00;60650.00;5070507;28;20016;-75
2023/07/12 09:07:36;;;;;;;9.82;5.93;;;;;;;-141.20;100.00;60650.00;5056996;28;20063;-76
2023/07/12 09:10:02;;;;;;;7.85;6.05;;;;;;;-141.20;100.00;60650.00;5065380;28;20056;-76
2023/07/12 09:12:30;;;;;;;10.68;5.97;;;;;;;-141.20;100.00;60650.00;5069577;28;20097;-73
2023/07/12 09:15:05;;;;;;;11.13;6.45;;;;;;;-141.20;100.00;60650.00;5073806;28;20049;-75
2023/07/12 09:17:34;;;;;;;9.30;6.13;;;;;;;-141.20;100.00;60650.00;5068099;28;20426;-74
2023/07/12 09:20:00;;;;;;;7.72;5.82;;;;;;;-141.20;100.00;60650.00;5059921;28;20505;-75
2023/07/12 09:22:29;;;;;;;7.90;6.15;;;;;;;-141.20;100.00;60650.00;5080538;28;20044;-75
2023/07/12 09:24:55;;;;;;;8.93;6.00;;;;;;;-141.20;100.00;60650.00;5063086;28;20027;-75
2023/07/12 09:27:25;;;;;;;7.72;5.88;;;;;;;-141.20;100.00;60650.00;5061671;28;20048;-75
2023/07/12 09:30:01;;;;;;;8.05;6.35;;;;;;;-141.20;100.00;60650.00;5063568;28;20070;-75
2023/07/12 09:32:35;;;;;;;8.60;5.97;;;;;;;-141.20;100.00;60650.00;5050128;28;20414;-75
2023/07/12 09:35:03;;;;;;;8.32;5.63;;;;;;;-141.20;100.00;60650.00;5063424;28;20503;-75
2023/07/12 09:37:34;;;;;;;7.22;5.72;;;;;;;-141.20;100.00;60650.00;5033254;28;20021;-75
2023/07/12 09:40:00;;;;;;;8.70;5.80;;;;;;;-141.20;100.00;60650.00;5038791;28;20043;-77
2023/07/12 09:42:28;;;;;;;6.72;5.38;;;;;;;-141.20;100.00;60650.00;5075902;28;20025;-74
2023/07/12 09:44:53;;;;;;;7.20;5.60;;;;;;;-141.20;100.00;60650.00;5063511;28;20036;-76
2023/07/12 09:47:34;;;;;;;6.80;5.07;;;;;;;-141.20;100.00;60650.00;5050067;28;20029;-75
2023/07/12 09:50:00;;;;;;;11.98;5.82;;;;;;;-141.20;100.00;60650.00;5056162;28;20471;-76
2023/07/12 09:52:47;;;;;;;7.63;5.68;;;;;;;-141.20;100.00;60650.00;5064528;28;20023;-75
2023/07/12 09:55:29;;;;;;;8.27;5.53;;;;;;;-141.20;100.00;60650.00;5060977;28;20040;-76
2023/07/12 09:58:09;;;;;;;6.43;5.20;;;;;;;-141.20;100.00;60650.00;5056495;28;20036;-76
2023/07/12 10:01:12;;;;;;;7.43;5.10;;;;;;;-141.20;100.00;60650.00;5069787;28;20047;-76
2023/07/12 10:03:42;;;;;;;8.48;6.25;;;;;;;-141.20;100.00;60650.00;5052893;28;20755;-75
2023/07/12 10:06:22;;;;;;;6.82;5.10;;;;;;;-141.20;100.00;60650.00;5064253;28;20045;-76
2023/07/12 10:08:54;;;;;;;6.82;5.70;;;;;;;-141.20;100.00;60650.00;5064392;28;20032;-76
2023/07/12 10:11:37;;;;;;;7.53;5.63;;;;;;;-141.20;100.00;60650.00;5069893;28;20029;-76
2023/07/12 10:14:06;;;;;;;9.07;5.97;;;;;;;-141.20;100.00;60650.00;5050317;28;20041;-76
2023/07/12 10:16:40;;;;;;;6.55;5.30;;;;;;;-141.20;100.00;60650.00;5036572;28;20402;-76
2023/07/12 10:19:26;;;;;;;7.45;5.50;;;;;;;-141.20;100.00;60650.00;5036903;28;20028;-76
2023/07/12 10:21:53;;;;;;;7.82;5.70;;;;;;;-141.20;100.00;60650.00;5036513;28;20044;-75
2023/07/12 10:24:21;;;;;;;6.32;5.10;;;;;;;-141.20;100.00;60650.00;5049566;28;20029;-76
2023/07/12 10:26:47;;;;;;;9.23;5.32;;;;;;;-141.20;100.00;60650.00;5049896;28;20038;-76
2023/07/12 10:29:19;;;;;;;9.02;5.35;;;;;;;-141.20;100.00;60650.00;5060689;28;20025;-75
2023/07/12 10:31:51;;;;;;;6.55;5.20;;;;;;;-141.20;100.00;60650.00;5047569;28;20041;-76
2023/07/12 10:34:27;;;;;;;7.63;5.28;;;;;;;-141.20;100.00;60650.00;5041739;28;20108;-76
2023/07/12 10:36:59;;;;;;;8.77;5.70;;;;;;;-141.20;100.00;60650.00;5036328;28;20048;-76
2023/07/12 10:39:26;;;;;;;9.50;5.30;;;;;;;-141.20;100.00;60650.00;5063970;28;20040;-76
2023/07/12 10:41:59;;;;;;;7.20;4.97;;;;;;;-141.20;100.00;60650.00;5063015;28;20025;-77
2023/07/12 10:44:30;;;;;;;8.63;5.53;;;;;;;-141.20;100.00;60650.00;5065025;28;20067;-75
2023/07/12 10:47:01;;;;;;;5.78;5.18;;;;;;;-141.20;100.00;60650.00;5059435;28;20068;-76
2023/07/12 10:50:07;;;;;;;6.72;5.00;;;;;;;-141.20;100.00;60650.00;5049416;28;20061;-76
2023/07/12 10:53:16;;;;;;;6.47;4.68;;;;;;;-141.20;100.00;60650.00;5062867;28;20053;-76
2023/07/12 10:55:42;;;;;;;8.40;5.07;;;;;;;-141.20;100.00;60650.00;5035478;28;20045;-76
2023/07/12 10:58:24;;;;;;;7.22;5.00;;;;;;;-141.20;100.00;60650.00;5058008;28;20406;-76
2023/07/12 11:00:58;;;;;;;7.80;5.25;;;;;;;-141.20;100.00;60650.00;5057190;28;20040;-76
2023/07/12 11:03:41;;;;;;;6.07;4.93;;;;;;;-141.20;100.00;60650.00;5060543;28;20052;-75
2023/07/12 11:06:26;;;;;;;9.10;5.40;;;;;;;-141.20;100.00;60650.00;5060777;28;20135;-76
2023/07/12 11:09:00;;;;;;;7.85;5.00;;;;;;;-141.20;100.00;60650.00;5059625;28;20103;-76
2023/07/12 11:11:33;;;;;;;7.28;5.05;;;;;;;-141.20;100.00;60650.00;5073013;28;20045;-76